Etusivu
METAR-TAF:

METAR-TAF

Lentoasemat :

Yeovilton, Englanti

Leveyspiiri: 51-00N, Pituuspiiri: 002-38W, korkeus merenpinnasta: 23 m

Tämänhetkinen sää

Tämä raportti tehtiin 46 minuuttia sitten, kello 20.50 UTC
Tuuli 3 kn idästä/kaakosta
Lämpötila 0°C
Kosteus 93%
Ilmanpaine 1018 hPa
Näkyvyys: 9000 m
utua

METAR: EGDY 182050Z AUTO 12003KT 9000 BR NCD M00/M01 Q1018

Aika: 21:36 (21:36 UTC)

Sääennuste

Tämä raportti tehtiin 8 tuntia ja 3 minuuttia sitten, kello 13.33 UTC
Ennuste voimassa 18. päivästä klo 15 UTC - 18. päivään klo 24 UTC
Tuuli 10 kn pohjoisen/luoteesta
Näkyvyys 10 km tai enemmän
Muutamia pilviä 1800 ft:n korkeudessa
Tulossa
18. päivästä klo 17 UTC - 18. päivään klo 19 UTC
Tuuli 2 kn eri suunnista
Näkyvyys: 4000 m
utua
Todennäköisyys 40%
18. päivästä klo 18 UTC - 18. päivään klo 24 UTC
Näkyvyys: 0600 m
sumua

TAF: EGDY 181333Z 1815/1824 34010KT 9999 FEW018 BECMG 1817/1819 VRB02KT 4000 BR PROB40 1818/1824 0600 FG

Säähavainnot ja -ennusteet yli 4000 lentoasemalta (METAR- ja TAF-raportit).

Käytössä olevat sääasemat on merkitty karttaan keltaisilla ja punaisilla pisteillä.

Aseta hiiri pisteen päälle nähdäksesi sääaseman nimen.

Klikkaa sitten nähdäksesi säähavainnot ja -ennusteet.

Kartan vaihtaminen: klikkaa mustalla rastilla varustettuja vihreitä pisteitä, niin voit zoomata sisään; viivalla varustettua vihreää pistettä, niin voit zoomata ulos tai vihreitä nuolia, niin pääset viereisille kartoille.


METAR-TAF: